createdAt,value
2023-04-19T00:02:27.363Z,9.10
2023-04-19T00:04:55.930Z,12.20
2023-04-19T00:07:24.256Z,10.83
2023-04-19T00:09:52.486Z,10.60
2023-04-19T00:12:20.742Z,10.20
2023-04-19T00:14:50.356Z,11.27
2023-04-19T00:17:19.445Z,14.10
2023-04-19T00:19:47.795Z,9.80
2023-04-19T00:22:17.373Z,9.30
2023-04-19T00:24:45.662Z,10.77
2023-04-19T00:27:13.785Z,11.10
2023-04-19T00:29:42.136Z,12.70
2023-04-19T00:32:11.799Z,11.10
2023-04-19T00:34:40.010Z,9.40
2023-04-19T00:37:09.078Z,11.40
2023-04-19T00:39:37.333Z,9.73
2023-04-19T00:42:06.914Z,14.03
2023-04-19T00:44:35.392Z,11.67
2023-04-19T00:47:03.582Z,10.47
2023-04-19T00:49:33.592Z,12.23
2023-04-19T00:52:01.752Z,11.57
2023-04-19T00:54:30.928Z,14.40
2023-04-19T00:56:59.602Z,13.20
2023-04-19T00:59:28.182Z,12.50
2023-04-19T01:01:56.435Z,11.23
2023-04-19T01:04:25.381Z,11.93
2023-04-19T01:06:55.199Z,10.37
2023-04-19T01:09:23.488Z,12.67
2023-04-19T01:11:51.969Z,10.30
2023-04-19T01:14:20.476Z,11.43
2023-04-19T01:16:49.044Z,11.03
2023-04-19T01:19:17.214Z,13.33
2023-04-19T01:21:46.398Z,13.50
2023-04-19T01:24:16.295Z,10.90
2023-04-19T01:26:44.669Z,10.33
2023-04-19T01:29:12.900Z,10.30
2023-04-19T01:31:41.220Z,11.60
2023-04-19T01:34:09.449Z,11.03
2023-04-19T01:36:40.076Z,12.30
2023-04-19T01:39:08.292Z,12.10
2023-04-19T01:41:37.877Z,13.30
2023-04-19T01:44:06.218Z,13.20
2023-04-19T01:46:34.466Z,11.77
2023-04-19T01:49:02.856Z,11.33
2023-04-19T01:51:31.221Z,13.37
2023-04-19T01:53:59.358Z,12.10
2023-04-19T01:56:27.555Z,17.27
2023-04-19T01:58:57.056Z,13.93
2023-04-19T02:01:26.075Z,13.50
2023-04-19T02:03:54.676Z,11.13
2023-04-19T02:06:23.089Z,11.70
2023-04-19T02:08:52.542Z,12.00
2023-04-19T02:11:20.740Z,13.77
2023-04-19T02:13:49.029Z,11.93
2023-04-19T02:16:18.657Z,13.37
2023-04-19T02:18:48.291Z,17.00
2023-04-19T02:21:16.796Z,14.73
2023-04-19T02:23:45.027Z,17.03
2023-04-19T02:26:13.801Z,13.90
2023-04-19T02:28:44.541Z,19.20
2023-04-19T02:31:14.140Z,16.00
2023-04-19T02:33:43.736Z,21.67
2023-04-19T02:36:13.031Z,14.97
2023-04-19T02:38:41.848Z,17.33
2023-04-19T02:41:10.178Z,21.43
2023-04-19T02:43:40.735Z,21.00
2023-04-19T02:46:09.045Z,15.67
2023-04-19T02:48:37.344Z,15.47
2023-04-19T02:51:07.103Z,13.20
2023-04-19T02:53:35.296Z,20.80
2023-04-19T02:56:03.863Z,18.97
2023-04-19T02:58:32.107Z,15.80
2023-04-19T03:01:05.164Z,15.50
2023-04-19T03:03:33.536Z,18.77
2023-04-19T03:06:01.813Z,16.20
2023-04-19T03:08:32.349Z,15.87
2023-04-19T03:11:01.022Z,13.33
2023-04-19T03:13:31.772Z,19.53
2023-04-19T03:16:00.155Z,16.10
2023-04-19T03:18:30.227Z,15.80
2023-04-19T03:20:59.493Z,12.67
2023-04-19T03:23:32.718Z,14.90
2023-04-19T03:26:02.690Z,16.90
2023-04-19T03:28:40.120Z,17.10
2023-04-19T03:31:31.265Z,18.27
2023-04-19T03:34:00.661Z,17.60
2023-04-19T03:36:35.119Z,17.10
2023-04-19T03:39:05.940Z,15.47
2023-04-19T03:41:34.963Z,14.67
2023-04-19T03:44:23.678Z,15.13
2023-04-19T03:46:51.925Z,13.63
2023-04-19T03:49:24.524Z,15.47
2023-04-19T03:52:01.833Z,13.77
2023-04-19T03:54:31.435Z,11.77
2023-04-19T03:57:00.734Z,13.07
2023-04-19T03:59:29.390Z,13.67
2023-04-19T04:01:59.804Z,14.37
2023-04-19T04:04:28.573Z,14.80
2023-04-19T04:06:57.001Z,14.10
2023-04-19T04:09:25.312Z,15.40
2023-04-19T04:11:55.646Z,15.73
2023-04-19T04:14:25.146Z,17.27
2023-04-19T04:16:53.907Z,16.90
2023-04-19T04:19:22.994Z,13.97
2023-04-19T04:21:51.480Z,16.67
2023-04-19T04:24:20.314Z,14.80
2023-04-19T04:27:20.243Z,15.70
2023-04-19T04:29:50.683Z,18.43
2023-04-19T04:32:23.343Z,21.23
2023-04-19T04:34:55.910Z,18.67
2023-04-19T04:37:35.066Z,18.27
2023-04-19T04:40:05.261Z,18.83
2023-04-19T04:42:37.741Z,16.23
2023-04-19T04:45:07.827Z,17.07
2023-04-19T04:47:38.916Z,17.50
2023-04-19T04:50:08.865Z,14.97
2023-04-19T04:52:37.327Z,15.07
2023-04-19T04:55:11.352Z,22.50
2023-04-19T04:57:45.802Z,14.90
2023-04-19T05:00:20.468Z,13.57
2023-04-19T05:02:59.341Z,14.80
2023-04-19T05:05:27.916Z,16.20
2023-04-19T05:07:57.259Z,14.90
2023-04-19T05:10:25.784Z,19.90
2023-04-19T05:12:55.784Z,20.50
2023-04-19T05:15:24.164Z,16.23
2023-04-19T05:17:56.045Z,17.17
2023-04-19T05:20:24.366Z,14.33
2023-04-19T05:23:03.438Z,15.70
2023-04-19T05:25:33.909Z,16.40
2023-04-19T05:28:04.421Z,16.03
2023-04-19T05:30:41.369Z,14.23
2023-04-19T05:33:09.775Z,19.60
2023-04-19T05:35:38.200Z,14.93
2023-04-19T05:38:06.545Z,17.03
2023-04-19T05:40:35.548Z,16.60
2023-04-19T05:43:05.142Z,16.93
2023-04-19T05:45:33.376Z,19.77
2023-04-19T05:48:01.594Z,18.57
2023-04-19T05:50:59.802Z,14.23
2023-04-19T05:53:57.386Z,15.47
2023-04-19T05:56:26.688Z,15.93
2023-04-19T05:58:56.722Z,18.23
2023-04-19T06:01:25.537Z,30.40
2023-04-19T06:03:54.396Z,16.53
2023-04-19T06:06:24.143Z,17.40
2023-04-19T06:08:54.658Z,15.40
2023-04-19T06:11:29.177Z,17.70
2023-04-19T06:14:01.382Z,18.80
2023-04-19T06:16:29.740Z,19.30
2023-04-19T06:18:58.500Z,19.63
2023-04-19T06:21:26.963Z,17.30
2023-04-19T06:23:55.584Z,22.03
2023-04-19T06:26:23.871Z,17.40
2023-04-19T06:28:52.004Z,17.80
2023-04-19T06:31:22.010Z,21.40
2023-04-19T06:33:50.219Z,21.43
2023-04-19T06:36:18.445Z,19.20
2023-04-19T06:38:46.630Z,24.70
2023-04-19T06:41:14.808Z,23.30
2023-04-19T06:43:44.740Z,21.40
2023-04-19T06:46:14.087Z,23.57
2023-04-19T06:48:43.813Z,20.80
2023-04-19T06:51:12.069Z,26.53
2023-04-19T06:53:40.166Z,23.90
2023-04-19T06:56:10.060Z,25.57
2023-04-19T06:58:38.143Z,22.23
2023-04-19T07:01:06.495Z,29.93
2023-04-19T07:03:35.258Z,23.67
2023-04-19T07:06:05.904Z,27.37
2023-04-19T07:08:48.637Z,23.40
2023-04-19T07:11:19.288Z,26.30
2023-04-19T07:13:48.432Z,24.70
2023-04-19T07:16:16.729Z,24.03
2023-04-19T07:18:44.959Z,24.47
2023-04-19T07:21:14.532Z,24.70
2023-04-19T07:23:43.165Z,25.40
2023-04-19T07:26:11.604Z,25.00
2023-04-19T07:28:41.056Z,29.23
2023-04-19T07:31:09.413Z,27.60
2023-04-19T07:33:37.619Z,26.30
2023-04-19T07:36:06.634Z,26.77
2023-04-19T07:38:36.506Z,26.47
2023-04-19T07:41:05.279Z,25.60
2023-04-19T07:43:33.579Z,24.83
2023-04-19T07:46:01.849Z,29.70
2023-04-19T07:48:30.167Z,27.73
2023-04-19T07:50:58.322Z,23.57
2023-04-19T07:53:26.635Z,23.80
2023-04-19T07:55:56.348Z,25.60
2023-04-19T07:58:24.577Z,24.03
2023-04-19T08:00:52.786Z,28.93
2023-04-19T08:03:22.290Z,27.60
2023-04-19T08:05:50.957Z,23.00
2023-04-19T08:08:19.500Z,27.93
2023-04-19T08:10:48.190Z,23.03
2023-04-19T08:13:18.070Z,22.00
2023-04-19T08:18:17.554Z,23.90
2023-04-19T08:20:47.334Z,26.83
2023-04-19T08:23:22.715Z,24.63
2023-04-19T08:25:54.101Z,23.60
2023-04-19T08:28:24.623Z,23.50
2023-04-19T08:30:53.121Z,21.70
2023-04-19T08:33:21.431Z,22.03
2023-04-19T08:35:49.852Z,24.70
2023-04-19T08:38:18.077Z,21.30
2023-04-19T08:40:48.167Z,26.50
2023-04-19T08:43:18.084Z,22.73
2023-04-19T08:45:50.332Z,22.10
2023-04-19T08:48:19.468Z,22.97
2023-04-19T08:51:00.561Z,21.37
2023-04-19T08:53:35.569Z,24.30
2023-04-19T08:56:15.258Z,19.80
2023-04-19T08:59:07.317Z,19.77
2023-04-19T09:01:44.503Z,19.60
2023-04-19T09:06:44.564Z,21.17
2023-04-19T09:11:49.434Z,22.27
2023-04-19T09:14:19.447Z,21.10
2023-04-19T09:16:49.534Z,25.80
2023-04-19T09:19:24.318Z,23.90
2023-04-19T09:21:54.709Z,17.10
2023-04-19T09:25:14.475Z,20.00
2023-04-19T09:27:29.969Z,22.23
2023-04-19T09:29:59.209Z,17.50
2023-04-19T09:32:29.604Z,16.27
2023-04-19T09:34:59.761Z,14.53
2023-04-19T09:39:59.619Z,14.57
2023-04-19T09:48:02.578Z,16.97
2023-04-19T09:50:31.860Z,14.17
2023-04-19T09:53:03.941Z,18.73
2023-04-19T09:55:41.353Z,18.87
2023-04-19T09:58:17.361Z,16.03
2023-04-19T10:00:51.375Z,18.83
2023-04-19T10:03:23.907Z,20.50
2023-04-19T10:05:52.514Z,18.07
2023-04-19T10:08:20.994Z,18.70
2023-04-19T10:10:54.913Z,16.80
2023-04-19T10:13:26.684Z,18.30
2023-04-19T10:16:04.534Z,15.17
2023-04-19T10:18:38.161Z,15.20
2023-04-19T10:21:09.697Z,19.70
2023-04-19T10:23:38.907Z,15.20
2023-04-19T10:26:07.481Z,14.00
2023-04-19T10:28:37.318Z,19.93
2023-04-19T10:31:06.404Z,13.77
2023-04-19T10:33:38.866Z,15.73
2023-04-19T10:36:11.271Z,14.37
2023-04-19T10:38:41.519Z,13.43
2023-04-19T10:41:17.034Z,13.93
2023-04-19T10:43:47.410Z,14.40
2023-04-19T10:46:18.009Z,12.00
2023-04-19T10:48:55.511Z,10.73
2023-04-19T10:51:25.437Z,14.27
2023-04-19T10:53:59.066Z,14.53
2023-04-19T10:57:11.379Z,12.00
2023-04-19T10:59:43.009Z,10.47
2023-04-19T11:02:30.859Z,14.43
2023-04-19T11:05:02.336Z,9.73
2023-04-19T11:07:37.414Z,11.40
2023-04-19T11:10:06.733Z,10.63
2023-04-19T11:12:35.846Z,10.90
2023-04-19T11:15:04.127Z,10.50
2023-04-19T11:17:33.461Z,12.77
2023-04-19T11:20:07.033Z,14.07
2023-04-19T11:22:36.379Z,12.23
2023-04-19T11:25:10.579Z,9.57
2023-04-19T11:27:39.508Z,12.37
2023-04-19T11:30:12.184Z,11.17
2023-04-19T11:32:46.649Z,20.73
2023-04-19T11:35:19.645Z,11.10
2023-04-19T11:37:47.945Z,12.27
2023-04-19T11:40:17.558Z,10.90
2023-04-19T11:42:46.537Z,10.00
2023-04-19T11:45:30.300Z,10.77
2023-04-19T11:47:59.804Z,10.37
2023-04-19T11:50:49.539Z,10.90
2023-04-19T11:53:19.370Z,9.70
2023-04-19T11:55:49.436Z,11.50
2023-04-19T11:58:30.055Z,8.77
2023-04-19T12:01:00.875Z,11.07
2023-04-19T12:03:29.579Z,11.07
2023-04-19T12:06:00.533Z,14.23
2023-04-19T12:08:33.086Z,10.63
2023-04-19T12:11:03.226Z,13.13
2023-04-19T12:13:32.077Z,12.07
2023-04-19T12:16:01.763Z,11.10
2023-04-19T12:18:43.381Z,17.10
2023-04-19T12:21:24.688Z,12.53
2023-04-19T12:23:56.109Z,15.60
2023-04-19T12:26:24.366Z,13.73
2023-04-19T12:28:52.601Z,12.50
2023-04-19T12:31:21.287Z,14.70
2023-04-19T12:33:50.550Z,13.83
2023-04-19T12:36:20.276Z,9.37
2023-04-19T12:38:48.536Z,10.50
2023-04-19T12:41:16.810Z,12.47
2023-04-19T12:43:45.080Z,11.53
2023-04-19T12:46:13.291Z,9.03
2023-04-19T12:48:41.501Z,13.17
2023-04-19T12:51:10.550Z,10.63
2023-04-19T12:53:40.249Z,14.40
2023-04-19T12:56:08.418Z,9.77
2023-04-19T12:58:36.744Z,13.33
2023-04-19T13:01:05.027Z,9.70
2023-04-19T13:03:36.470Z,13.30
2023-04-19T13:06:05.510Z,10.07
2023-04-19T13:08:41.475Z,12.13
2023-04-19T13:11:14.519Z,11.43
2023-04-19T13:13:42.692Z,12.27
2023-04-19T13:16:11.482Z,10.50
2023-04-19T13:18:40.069Z,10.67
2023-04-19T13:21:08.663Z,11.37
2023-04-19T13:23:37.092Z,10.63
2023-04-19T13:26:05.441Z,18.60
2023-04-19T13:28:36.787Z,14.60
2023-04-19T13:31:06.666Z,9.53
2023-04-19T13:33:35.156Z,12.10
2023-04-19T13:36:03.381Z,12.80
2023-04-19T13:38:31.545Z,11.93
2023-04-19T13:41:00.394Z,10.80
2023-04-19T13:43:28.554Z,11.83
2023-04-19T13:45:58.414Z,14.80
2023-04-19T13:48:29.364Z,16.13
2023-04-19T13:50:57.714Z,13.40
2023-04-19T13:53:29.147Z,12.30
2023-04-19T13:55:57.783Z,12.80
2023-04-19T13:58:26.163Z,14.90
2023-04-19T14:00:54.841Z,13.83
2023-04-19T14:03:25.988Z,15.83
2023-04-19T14:05:54.282Z,11.93
2023-04-19T14:08:22.499Z,12.53
2023-04-19T14:10:51.561Z,13.63
2023-04-19T14:13:19.810Z,13.70
2023-04-19T14:15:47.949Z,12.70
2023-04-19T14:18:16.071Z,21.57
2023-04-19T14:20:45.769Z,14.87
2023-04-19T14:23:14.286Z,21.40
2023-04-19T14:25:42.374Z,16.83
2023-04-19T14:28:12.701Z,14.97
2023-04-19T14:30:40.993Z,15.20
2023-04-19T14:33:09.149Z,16.50
2023-04-19T14:35:37.452Z,15.60
2023-04-19T14:38:06.960Z,19.47
2023-04-19T14:40:35.306Z,18.33
2023-04-19T14:43:03.490Z,15.50
2023-04-19T14:45:35.135Z,15.00
2023-04-19T14:48:03.349Z,21.67
2023-04-19T14:50:31.652Z,22.23
2023-04-19T14:52:59.755Z,18.20
2023-04-19T14:55:29.262Z,17.30
2023-04-19T14:57:57.367Z,14.33
2023-04-19T15:00:25.705Z,16.93
2023-04-19T15:02:53.904Z,20.27
2023-04-19T15:05:23.956Z,16.30
2023-04-19T15:07:52.191Z,18.83
2023-04-19T15:10:20.496Z,17.07
2023-04-19T15:12:50.253Z,22.00
2023-04-19T15:15:18.647Z,15.93
2023-04-19T15:17:46.814Z,19.23
2023-04-19T15:20:15.281Z,17.97
2023-04-19T15:22:43.810Z,17.57
2023-04-19T15:25:12.146Z,16.93
2023-04-19T15:27:40.934Z,15.50
2023-04-19T15:30:13.634Z,15.67
2023-04-19T15:32:44.017Z,14.13
2023-04-19T15:35:12.964Z,13.80
2023-04-19T15:37:41.974Z,11.80
2023-04-19T15:40:12.623Z,13.13
2023-04-19T15:42:41.060Z,11.10
2023-04-19T15:45:12.048Z,14.63
2023-04-19T15:47:40.875Z,13.27
2023-04-19T15:50:11.049Z,11.83
2023-04-19T15:52:39.221Z,13.97
2023-04-19T15:55:07.796Z,15.33
2023-04-19T15:57:36.054Z,13.27
2023-04-19T16:00:09.212Z,13.40
2023-04-19T16:02:42.233Z,11.80
2023-04-19T16:05:10.825Z,15.53
2023-04-19T16:07:39.054Z,12.77
2023-04-19T16:10:08.214Z,18.87
2023-04-19T16:12:36.484Z,15.43
2023-04-19T16:15:05.133Z,13.03
2023-04-19T16:17:33.362Z,14.20
2023-04-19T16:20:03.133Z,13.43
2023-04-19T16:22:32.983Z,13.10
2023-04-19T16:25:01.134Z,14.43
2023-04-19T16:27:29.348Z,15.63
2023-04-19T16:29:57.512Z,12.73
2023-04-19T16:32:26.137Z,14.03
2023-04-19T16:34:54.289Z,13.37
2023-04-19T16:37:23.743Z,15.50
2023-04-19T16:39:51.813Z,11.97
2023-04-19T16:42:19.877Z,12.53
2023-04-19T16:44:47.977Z,10.27
2023-04-19T16:47:16.898Z,12.10
2023-04-19T16:49:47.213Z,9.23
2023-04-19T16:52:15.953Z,9.20
2023-04-19T16:54:45.944Z,9.07
2023-04-19T16:57:14.098Z,9.43
2023-04-19T16:59:42.233Z,7.23
2023-04-19T17:02:11.266Z,9.97
2023-04-19T17:04:42.399Z,8.10
2023-04-19T17:07:11.624Z,7.90
2023-04-19T17:09:39.871Z,6.97
2023-04-19T17:12:09.500Z,7.60
2023-04-19T17:14:37.628Z,6.50
2023-04-19T17:17:06.557Z,6.90
2023-04-19T17:19:34.692Z,7.17
2023-04-19T17:22:05.433Z,7.77
2023-04-19T17:24:34.414Z,7.27
2023-04-19T17:27:02.916Z,6.17
2023-04-19T17:29:32.577Z,7.47
2023-04-19T17:32:01.346Z,6.20
2023-04-19T17:34:29.546Z,5.63
2023-04-19T17:36:58.162Z,6.40
2023-04-19T17:39:27.970Z,9.00
2023-04-19T17:41:56.476Z,8.70
2023-04-19T17:44:24.675Z,6.10
2023-04-19T17:46:54.209Z,6.47
2023-04-19T17:49:22.423Z,6.10
2023-04-19T17:51:50.598Z,5.70
2023-04-19T17:54:19.578Z,6.70
2023-04-19T17:56:48.898Z,5.67
2023-04-19T17:59:17.244Z,13.20
2023-04-19T18:01:45.575Z,10.23
2023-04-19T18:04:20.107Z,6.30
2023-04-19T18:06:48.444Z,7.73
2023-04-19T18:09:17.856Z,5.83
2023-04-19T18:11:47.670Z,6.20
2023-04-19T18:14:16.260Z,7.27
2023-04-19T18:16:44.471Z,6.90
2023-04-19T18:19:14.297Z,5.60
2023-04-19T18:21:42.635Z,6.07
2023-04-19T18:24:11.478Z,6.63
2023-04-19T18:26:42.489Z,7.40
2023-04-19T18:29:12.325Z,9.93
2023-04-19T18:31:40.476Z,8.30
2023-04-19T18:34:09.920Z,8.27
2023-04-19T18:36:41.486Z,7.30
2023-04-19T18:39:10.559Z,9.53
2023-04-19T18:41:39.072Z,7.60
2023-04-19T18:44:34.771Z,7.83
2023-04-19T18:46:55.519Z,8.53
2023-04-19T18:49:23.702Z,8.93
2023-04-19T18:51:53.257Z,8.60
2023-04-19T18:54:21.423Z,7.97
2023-04-19T18:57:19.065Z,8.03
2023-04-19T18:59:38.571Z,6.43
2023-04-19T19:02:06.883Z,7.23
2023-04-19T19:07:22.829Z,8.47
2023-04-19T19:09:57.048Z,9.07
2023-04-19T19:12:25.598Z,8.43
2023-04-19T19:14:53.731Z,8.60
2023-04-19T19:17:24.503Z,8.00
2023-04-19T19:19:52.812Z,8.73
2023-04-19T19:22:27.595Z,9.87
2023-04-19T19:24:57.201Z,6.77
2023-04-19T19:27:25.443Z,7.10
2023-04-19T19:29:53.646Z,8.00
2023-04-19T19:32:22.180Z,7.90
2023-04-19T19:34:56.713Z,7.07
2023-04-19T19:37:30.436Z,9.30
2023-04-19T19:40:03.824Z,9.27
2023-04-19T19:42:33.379Z,10.93
2023-04-19T19:45:02.056Z,9.37
2023-04-19T19:47:31.525Z,9.87
2023-04-19T19:52:32.990Z,12.17
2023-04-19T19:55:01.624Z,9.23
2023-04-19T19:58:16.420Z,9.07
2023-04-19T20:02:56.158Z,10.53
2023-04-19T20:05:25.474Z,7.60
2023-04-19T20:08:08.131Z,8.73
2023-04-19T20:10:37.412Z,11.50
2023-04-19T20:13:06.920Z,7.60
2023-04-19T20:15:36.538Z,8.00
2023-04-19T20:18:05.361Z,7.33
2023-04-19T20:20:33.472Z,9.03
2023-04-19T20:23:02.957Z,8.33
2023-04-19T20:25:32.563Z,8.47
2023-04-19T20:28:01.291Z,8.10
2023-04-19T20:30:29.495Z,8.20
2023-04-19T20:32:58.036Z,8.10
2023-04-19T20:35:27.203Z,7.53
2023-04-19T20:38:02.258Z,7.90
2023-04-19T20:40:33.253Z,7.20
2023-04-19T20:43:01.466Z,6.03
2023-04-19T20:45:29.934Z,7.50
2023-04-19T20:47:58.589Z,7.30
2023-04-19T20:50:27.103Z,7.30
2023-04-19T20:52:55.321Z,9.00
2023-04-19T20:55:23.557Z,6.40
2023-04-19T20:57:53.094Z,6.73
2023-04-19T21:00:21.497Z,5.40
2023-04-19T21:02:50.224Z,4.10
2023-04-19T21:05:18.452Z,5.37
2023-04-19T21:07:46.660Z,7.23
2023-04-19T21:10:16.408Z,3.93
2023-04-19T21:12:44.735Z,4.67
2023-04-19T21:15:14.149Z,5.43
2023-04-19T21:17:42.396Z,4.20
2023-04-19T21:20:14.141Z,5.40
2023-04-19T21:22:44.048Z,6.50
2023-04-19T21:25:13.338Z,6.00
2023-04-19T21:27:42.764Z,3.87
2023-04-19T21:30:13.533Z,4.03
2023-04-19T21:32:41.728Z,4.40
2023-04-19T21:35:10.682Z,3.47
2023-04-19T21:37:38.853Z,4.53
2023-04-19T21:40:09.300Z,7.13
2023-04-19T21:42:37.452Z,5.10
2023-04-19T21:45:06.545Z,5.90
2023-04-19T21:47:36.090Z,5.03
2023-04-19T21:50:04.526Z,4.20
2023-04-19T21:52:32.817Z,5.43
2023-04-19T21:55:00.932Z,3.63
2023-04-19T21:57:30.885Z,4.13
2023-04-19T21:59:59.295Z,9.73
2023-04-19T22:02:27.550Z,5.70
2023-04-19T22:05:00.257Z,4.60
2023-04-19T22:07:30.366Z,4.33
2023-04-19T22:09:58.576Z,8.87
2023-04-19T22:12:26.784Z,8.70
2023-04-19T22:14:55.118Z,8.50
2023-04-19T22:17:23.419Z,3.17
2023-04-19T22:19:54.219Z,3.43
2023-04-19T22:22:23.799Z,6.00
2023-04-19T22:24:56.980Z,5.53
2023-04-19T22:27:26.529Z,11.07
2023-04-19T22:29:54.764Z,6.23
2023-04-19T22:32:22.999Z,6.93
2023-04-19T22:34:51.411Z,5.20
2023-04-19T22:37:19.527Z,2.50
2023-04-19T22:39:49.056Z,5.07
2023-04-19T22:42:17.414Z,5.60
2023-04-19T22:44:45.556Z,3.60
2023-04-19T22:47:14.447Z,6.20
2023-04-19T22:49:43.494Z,4.43
2023-04-19T22:52:12.080Z,3.30
2023-04-19T22:54:40.343Z,8.30
2023-04-19T22:57:11.135Z,4.00
2023-04-19T22:59:39.298Z,3.20
2023-04-19T23:02:07.808Z,5.87
2023-04-19T23:04:37.974Z,8.60
2023-04-19T23:07:07.025Z,4.63
2023-04-19T23:09:39.011Z,3.53
2023-04-19T23:12:09.081Z,3.80
2023-04-19T23:14:38.612Z,5.10
2023-04-19T23:17:07.385Z,4.90
2023-04-19T23:19:36.567Z,7.17
2023-04-19T23:22:04.878Z,3.17
2023-04-19T23:24:33.010Z,4.80
2023-04-19T23:27:01.910Z,4.20
2023-04-19T23:29:31.607Z,5.17
2023-04-19T23:31:59.913Z,2.90
2023-04-19T23:34:28.130Z,6.50
2023-04-19T23:36:56.846Z,3.20
2023-04-19T23:39:24.987Z,3.47
2023-04-19T23:41:53.104Z,4.57
2023-04-19T23:44:21.851Z,5.13
2023-04-19T23:46:51.522Z,4.87
2023-04-19T23:49:20.001Z,5.63
2023-04-19T23:51:49.020Z,5.43
2023-04-19T23:54:21.067Z,7.83
2023-04-19T23:56:49.563Z,5.97
2023-04-19T23:59:19.003Z,3.47
